Time;durP1;ratioP1;P1;durP2;ratioP2;P2;SDS_P1;SDS_P2;PMS_P1;PMS_P2;Temp;Humidity;BMP_temperature;BMP_pressure;BME280_temperature;BME280_humidity;BME280_pressure;Samples;Min_cycle;Max_cycle;Signal;HPM_P1;HPM_P2
2022/05/15 00:02:47;;;;;;;8.30;5.33;;;12.10;99.90;;;;;;5058675;28;20060;-75
2022/05/15 00:05:14;;;;;;;9.35;4.93;;;12.10;99.90;;;;;;5057271;28;20049;-76
2022/05/15 00:07:41;;;;;;;8.23;5.13;;;12.00;99.90;;;;;;5064225;28;20045;-75
2022/05/15 00:10:11;;;;;;;9.55;4.50;;;12.10;99.90;;;;;;5075844;28;20104;-76
2022/05/15 00:12:38;;;;;;;8.95;4.72;;;12.00;99.90;;;;;;5057578;28;20051;-76
2022/05/15 00:15:07;;;;;;;7.63;4.60;;;12.00;99.90;;;;;;5059495;28;20460;-76
2022/05/15 00:17:34;;;;;;;8.85;5.30;;;11.90;99.90;;;;;;5058108;28;20045;-78
2022/05/15 00:20:02;;;;;;;7.93;5.43;;;11.90;99.90;;;;;;5058283;28;20047;-77
2022/05/15 00:22:29;;;;;;;13.43;5.72;;;11.80;99.90;;;;;;5055501;28;20468;-76
2022/05/15 00:24:56;;;;;;;9.43;4.95;;;11.70;99.90;;;;;;5056520;28;20040;-77
2022/05/15 00:27:25;;;;;;;12.30;5.47;;;11.70;99.90;;;;;;5056482;28;20159;-77
2022/05/15 00:29:53;;;;;;;8.20;4.22;;;11.70;99.90;;;;;;5040212;28;20129;-76
2022/05/15 00:32:20;;;;;;;9.45;4.50;;;11.60;99.90;;;;;;5043244;28;20040;-77
2022/05/15 00:34:48;;;;;;;10.50;4.50;;;11.60;99.90;;;;;;5043392;28;20041;-77
2022/05/15 00:37:15;;;;;;;10.10;4.35;;;11.50;99.90;;;;;;5046163;28;20049;-77
2022/05/15 00:39:43;;;;;;;6.97;4.13;;;11.50;99.90;;;;;;5039149;28;20041;-77
2022/05/15 00:42:11;;;;;;;7.38;4.53;;;11.50;99.90;;;;;;5038856;28;20049;-76
2022/05/15 00:44:40;;;;;;;9.27;4.38;;;11.40;99.90;;;;;;5056676;28;20037;-75
2022/05/15 00:47:08;;;;;;;9.93;5.05;;;11.30;99.90;;;;;;5039029;28;20136;-77
2022/05/15 00:49:37;;;;;;;10.18;5.00;;;11.30;99.90;;;;;;5038167;28;20419;-76
2022/05/15 00:52:08;;;;;;;8.40;4.38;;;11.30;99.90;;;;;;5037983;28;20455;-76
2022/05/15 00:54:38;;;;;;;9.18;4.32;;;11.30;99.90;;;;;;5054592;28;20049;-75
2022/05/15 00:57:15;;;;;;;9.35;4.68;;;11.20;99.90;;;;;;5055760;28;20566;-75
2022/05/15 00:59:50;;;;;;;7.75;4.50;;;11.20;99.90;;;;;;5042064;28;20067;-75
2022/05/15 01:02:18;;;;;;;9.48;4.20;;;11.10;99.90;;;;;;5043968;28;20208;-76
2022/05/15 01:04:47;;;;;;;6.68;3.92;;;11.10;99.90;;;;;;5060337;28;20083;-76
2022/05/15 01:07:16;;;;;;;12.07;6.25;;;11.10;99.90;;;;;;5043249;28;20044;-78
2022/05/15 01:09:43;;;;;;;19.08;11.95;;;11.30;99.90;;;;;;5040127;28;20040;-77
2022/05/15 01:12:15;;;;;;;10.02;4.78;;;11.10;99.90;;;;;;5038412;28;20144;-79
2022/05/15 01:14:46;;;;;;;9.20;5.68;;;11.10;99.90;;;;;;5054454;28;20052;-77
2022/05/15 01:17:14;;;;;;;12.98;4.85;;;11.10;99.90;;;;;;5019184;28;20464;-78
2022/05/15 01:19:44;;;;;;;8.15;5.22;;;11.00;99.90;;;;;;5035782;28;20045;-77
2022/05/15 01:22:15;;;;;;;8.60;5.18;;;11.00;99.90;;;;;;5035859;28;20068;-78
2022/05/15 01:24:43;;;;;;;10.38;5.18;;;10.90;99.90;;;;;;5047087;28;20037;-77
2022/05/15 01:27:14;;;;;;;10.75;5.25;;;10.90;99.90;;;;;;5038130;28;20167;-77
2022/05/15 01:29:43;;;;;;;9.45;4.93;;;10.80;99.90;;;;;;5056476;28;20120;-78
2022/05/15 01:32:12;;;;;;;8.85;4.60;;;10.80;99.90;;;;;;5054127;28;20593;-78
2022/05/15 01:34:41;;;;;;;7.97;4.47;;;10.80;99.90;;;;;;5055142;28;20041;-78
2022/05/15 01:37:10;;;;;;;8.38;4.72;;;10.70;99.90;;;;;;5054880;28;20049;-76
2022/05/15 01:39:39;;;;;;;7.50;4.72;;;10.70;99.90;;;;;;5053415;28;20144;-76
2022/05/15 01:42:08;;;;;;;7.05;4.32;;;10.70;99.90;;;;;;5036726;28;20516;-77
2022/05/15 01:44:36;;;;;;;10.10;4.80;;;10.60;99.90;;;;;;5053470;28;20063;-77
2022/05/15 01:47:04;;;;;;;8.65;4.60;;;10.60;99.90;;;;;;5036269;28;20045;-76
2022/05/15 01:49:33;;;;;;;11.00;4.88;;;10.60;99.90;;;;;;5037658;28;20052;-78
2022/05/15 01:52:01;;;;;;;11.65;4.78;;;10.50;99.90;;;;;;5037105;28;20063;-77
2022/05/15 01:54:28;;;;;;;12.50;5.00;;;10.40;99.90;;;;;;5054897;28;20047;-77
2022/05/15 01:56:57;;;;;;;9.88;5.35;;;10.40;99.90;;;;;;5055305;28;20052;-78
2022/05/15 01:59:25;;;;;;;11.32;5.25;;;10.40;99.90;;;;;;5038129;28;20059;-78
2022/05/15 02:01:53;;;;;;;7.20;4.80;;;10.40;99.90;;;;;;5037415;28;20519;-78
2022/05/15 02:04:20;;;;;;;9.52;5.63;;;10.40;99.90;;;;;;5053858;28;20045;-77
2022/05/15 02:06:48;;;;;;;12.98;5.63;;;10.40;99.90;;;;;;5037674;28;20447;-78
2022/05/15 02:09:15;;;;;;;8.18;4.88;;;10.40;99.90;;;;;;5058476;28;20060;-77
2022/05/15 02:11:43;;;;;;;10.73;5.13;;;10.20;99.90;;;;;;5042966;28;20076;-78
2022/05/15 02:14:12;;;;;;;10.98;5.00;;;10.20;99.90;;;;;;5053702;28;20126;-77
2022/05/15 02:16:40;;;;;;;12.40;5.45;;;10.20;99.90;;;;;;5037741;28;20059;-77
2022/05/15 02:19:10;;;;;;;8.25;4.57;;;10.10;99.90;;;;;;5037796;28;20064;-77
2022/05/15 02:21:38;;;;;;;8.80;4.80;;;10.10;99.90;;;;;;5036997;28;20053;-77
2022/05/15 02:24:07;;;;;;;7.25;4.60;;;9.90;99.90;;;;;;5038186;28;20052;-77
2022/05/15 02:26:37;;;;;;;9.00;4.68;;;9.90;99.90;;;;;;5038411;28;20103;-77
2022/05/15 02:29:05;;;;;;;7.30;4.20;;;9.90;99.90;;;;;;5037327;28;20052;-77
2022/05/15 02:31:34;;;;;;;10.35;4.80;;;10.00;99.90;;;;;;5044212;28;20041;-76
2022/05/15 02:34:02;;;;;;;8.10;5.10;;;10.10;99.90;;;;;;5045753;28;20103;-76
2022/05/15 02:36:31;;;;;;;9.02;5.15;;;10.00;99.90;;;;;;5046153;28;20068;-77
2022/05/15 02:38:59;;;;;;;9.38;4.28;;;9.90;99.90;;;;;;5043795;28;20044;-76
2022/05/15 02:41:28;;;;;;;7.03;4.57;;;9.90;99.90;;;;;;5061634;28;20500;-77
2022/05/15 02:43:57;;;;;;;10.50;4.82;;;9.90;99.90;;;;;;5062836;28;20037;-76
2022/05/15 02:46:24;;;;;;;7.20;4.75;;;9.80;99.90;;;;;;5061698;28;20048;-76
2022/05/15 02:51:39;;;;;;;8.35;4.90;;;9.70;99.90;;;;;;5063116;28;20049;-77
2022/05/15 02:54:07;;;;;;;7.22;4.15;;;9.70;99.90;;;;;;5063289;28;20073;-77
2022/05/15 02:56:36;;;;;;;8.60;5.35;;;9.70;99.90;;;;;;5046969;28;20069;-77
2022/05/15 02:59:04;;;;;;;10.85;5.18;;;9.70;99.90;;;;;;5043303;28;20041;-77
2022/05/15 03:01:33;;;;;;;11.32;5.15;;;9.70;99.90;;;;;;5042161;28;20047;-77
2022/05/15 03:04:02;;;;;;;7.53;5.45;;;9.70;99.90;;;;;;5043337;28;20052;-77
2022/05/15 03:06:30;;;;;;;9.10;5.20;;;9.70;99.90;;;;;;5042329;28;20143;-78
2022/05/15 03:08:58;;;;;;;9.80;4.78;;;9.60;99.90;;;;;;5041692;28;20044;-76
2022/05/15 03:11:26;;;;;;;8.13;5.28;;;9.60;99.90;;;;;;5058812;28;20053;-77
2022/05/15 03:13:54;;;;;;;10.30;4.43;;;9.60;99.90;;;;;;5057805;28;20084;-77
2022/05/15 03:16:21;;;;;;;10.80;5.63;;;9.50;99.90;;;;;;5041618;28;20091;-75
2022/05/15 03:18:51;;;;;;;10.77;6.35;;;9.40;99.90;;;;;;5041200;28;20045;-77
2022/05/15 03:21:30;;;;;;;8.65;4.68;;;9.40;99.90;;;;;;5041081;28;20132;-77
2022/05/15 03:24:04;;;;;;;9.35;4.97;;;9.50;99.90;;;;;;5054700;28;20051;-77
2022/05/15 03:26:34;;;;;;;8.07;4.53;;;9.50;99.90;;;;;;5036126;28;20424;-76
2022/05/15 03:29:03;;;;;;;7.47;4.70;;;9.60;99.90;;;;;;5035659;28;20538;-77
2022/05/15 03:31:30;;;;;;;12.10;5.47;;;9.60;99.90;;;;;;5035995;28;20162;-77
2022/05/15 03:33:58;;;;;;;11.95;4.95;;;9.60;99.90;;;;;;5035846;28;20045;-77
2022/05/15 03:36:27;;;;;;;5.60;4.75;;;9.60;99.90;;;;;;5053546;28;20053;-78
2022/05/15 03:38:55;;;;;;;10.25;5.07;;;9.60;99.90;;;;;;5052480;28;20467;-76
2022/05/15 03:41:22;;;;;;;10.85;5.47;;;9.70;99.90;;;;;;5053336;28;20427;-78
2022/05/15 03:43:50;;;;;;;8.02;5.15;;;9.70;99.90;;;;;;5035655;28;20048;-78
2022/05/15 03:46:18;;;;;;;17.63;5.45;;;9.70;99.90;;;;;;5053082;28;20095;-77
2022/05/15 03:48:45;;;;;;;6.95;5.07;;;9.80;99.90;;;;;;5055031;28;20073;-77
2022/05/15 03:51:14;;;;;;;7.65;4.68;;;9.90;99.90;;;;;;5039524;28;20111;-77
2022/05/15 03:53:43;;;;;;;7.90;4.40;;;10.20;99.90;;;;;;5057115;28;20554;-77
2022/05/15 03:56:11;;;;;;;6.63;3.97;;;10.80;99.90;;;;;;5057792;28;20463;-77
2022/05/15 03:58:40;;;;;;;7.55;4.30;;;11.30;99.90;;;;;;5039994;28;20053;-78
2022/05/15 04:01:08;;;;;;;11.52;5.05;;;11.80;99.90;;;;;;5040767;28;20142;-76
2022/05/15 04:03:35;;;;;;;7.72;3.75;;;12.30;99.90;;;;;;5036065;28;20141;-78
2022/05/15 04:06:03;;;;;;;10.23;4.18;;;12.80;99.90;;;;;;5036033;28;20060;-76
2022/05/15 04:08:31;;;;;;;7.53;3.63;;;13.40;99.90;;;;;;5035401;28;20054;-76
2022/05/15 04:11:00;;;;;;;8.52;3.92;;;13.80;99.90;;;;;;5035765;28;20053;-76
2022/05/15 04:13:28;;;;;;;7.07;3.55;;;14.10;99.90;;;;;;5045143;28;20480;-76
2022/05/15 04:15:55;;;;;;;7.30;3.33;;;14.80;99.90;;;;;;5038476;28;20140;-75
2022/05/15 04:18:23;;;;;;;8.65;3.83;;;15.10;99.90;;;;;;5038490;28;20408;-77
2022/05/15 04:20:50;;;;;;;6.75;2.90;;;15.50;99.90;;;;;;5039521;28;20060;-78
2022/05/15 04:23:18;;;;;;;5.70;3.28;;;15.80;99.90;;;;;;5071842;28;20066;-78
2022/05/15 04:25:46;;;;;;;7.45;3.28;;;16.00;99.90;;;;;;5078707;28;20029;-77
2022/05/15 04:28:16;;;;;;;7.75;3.70;;;16.00;99.90;;;;;;5060028;28;20049;-77
2022/05/15 04:30:43;;;;;;;7.55;3.90;;;16.00;99.90;;;;;;5066072;28;20051;-78
2022/05/15 04:33:11;;;;;;;8.60;3.58;;;16.50;99.90;;;;;;5050195;28;20099;-77
2022/05/15 04:35:38;;;;;;;6.82;3.17;;;16.80;99.90;;;;;;5051918;28;20115;-79
2022/05/15 04:38:08;;;;;;;5.07;3.00;;;17.20;99.90;;;;;;5065550;28;20048;-79
2022/05/15 04:40:35;;;;;;;59.47;10.60;;;18.10;99.90;;;;;;5060345;28;20045;-76
2022/05/15 04:43:03;;;;;;;6.82;3.20;;;18.80;99.90;;;;;;5061980;28;20075;-76
2022/05/15 04:45:32;;;;;;;18.65;4.13;;;19.10;99.90;;;;;;5059635;28;20033;-76
2022/05/15 04:48:00;;;;;;;8.82;3.25;;;18.50;99.90;;;;;;5059580;28;20056;-76
2022/05/15 04:50:27;;;;;;;8.35;3.38;;;17.60;99.90;;;;;;5058842;28;20048;-75
2022/05/15 04:52:55;;;;;;;7.68;3.47;;;17.00;99.90;;;;;;5059213;28;20041;-76
2022/05/15 04:55:22;;;;;;;8.07;3.70;;;16.40;99.90;;;;;;5040576;28;20037;-77
2022/05/15 04:57:49;;;;;;;5.53;3.30;;;16.10;99.90;;;;;;5058343;28;20803;-77
2022/05/15 05:00:18;;;;;;;7.60;3.55;;;15.70;99.90;;;;;;5057136;28;20048;-76
2022/05/15 05:02:48;;;;;;;15.30;4.25;;;15.60;99.90;;;;;;5039314;28;20045;-76
2022/05/15 05:05:16;;;;;;;8.88;4.20;;;15.30;99.90;;;;;;5039759;28;20045;-76
2022/05/15 05:07:43;;;;;;;12.50;4.00;;;15.20;99.90;;;;;;5039243;28;20080;-76
2022/05/15 05:10:13;;;;;;;7.13;4.05;;;15.90;99.90;;;;;;5057589;28;20051;-76
2022/05/15 05:12:40;;;;;;;8.02;3.50;;;16.90;99.90;;;;;;5056848;28;20051;-76
2022/05/15 05:15:09;;;;;;;4.88;3.50;;;18.30;99.90;;;;;;5057296;28;20045;-75
2022/05/15 05:17:37;;;;;;;6.80;3.25;;;19.50;99.90;;;;;;5056754;28;20037;-76
2022/05/15 05:20:07;;;;;;;6.53;3.80;;;20.50;99.90;;;;;;5039577;28;20077;-75
2022/05/15 05:22:35;;;;;;;7.82;3.95;;;21.20;99.90;;;;;;5057142;28;20053;-77
2022/05/15 05:25:03;;;;;;;6.90;3.63;;;21.60;99.90;;;;;;5055667;28;20033;-76
2022/05/15 05:27:30;;;;;;;6.85;4.30;;;21.60;99.90;;;;;;5055499;28;20045;-76
2022/05/15 05:29:58;;;;;;;7.60;4.32;;;21.50;99.90;;;;;;5037756;28;20045;-77
2022/05/15 05:32:25;;;;;;;11.38;4.85;;;21.60;99.90;;;;;;5051001;28;20135;-75
2022/05/15 05:34:53;;;;;;;8.88;4.40;;;21.30;99.90;;;;;;5037093;28;20049;-76
2022/05/15 05:37:22;;;;;;;7.10;3.50;;;21.20;99.90;;;;;;5054828;28;20044;-76
2022/05/15 05:39:50;;;;;;;10.55;4.63;;;20.90;99.90;;;;;;5054856;28;20041;-76
2022/05/15 05:42:17;;;;;;;8.27;3.80;;;20.60;99.90;;;;;;5037120;28;20049;-76
2022/05/15 05:44:45;;;;;;;9.25;4.32;;;20.40;99.90;;;;;;5054711;28;20041;-76
2022/05/15 05:47:12;;;;;;;7.57;3.97;;;20.50;99.90;;;;;;5053697;28;20045;-77
2022/05/15 05:49:40;;;;;;;7.43;3.97;;;20.30;99.90;;;;;;5054206;28;20445;-76
2022/05/15 05:52:08;;;;;;;8.45;4.07;;;20.50;99.90;;;;;;5054499;28;20055;-76
2022/05/15 05:54:36;;;;;;;10.20;4.07;;;20.40;99.90;;;;;;5054490;28;20044;-76
2022/05/15 05:57:04;;;;;;;8.25;3.55;;;20.10;99.90;;;;;;5054803;28;20040;-77
2022/05/15 05:59:32;;;;;;;6.57;3.55;;;19.90;99.90;;;;;;5036106;28;20047;-76
2022/05/15 06:01:59;;;;;;;10.38;4.35;;;19.70;99.90;;;;;;5050629;28;20044;-75
2022/05/15 06:04:41;;;;;;;8.05;4.07;;;19.60;99.90;;;;;;5053727;28;20049;-76
2022/05/15 06:07:12;;;;;;;7.85;3.83;;;19.50;99.90;;;;;;5054819;28;20029;-76
2022/05/15 06:09:43;;;;;;;5.28;3.58;;;19.80;99.90;;;;;;5054090;28;20045;-76
2022/05/15 06:12:13;;;;;;;11.20;3.88;;;20.10;99.90;;;;;;5053633;28;20049;-76
2022/05/15 06:14:40;;;;;;;6.25;3.60;;;20.40;99.90;;;;;;5058667;28;20043;-77
2022/05/15 06:17:08;;;;;;;7.13;3.97;;;20.50;99.90;;;;;;5067278;28;20044;-76
2022/05/15 06:19:36;;;;;;;7.55;3.55;;;20.70;99.90;;;;;;5071310;28;20500;-76
2022/05/15 06:22:04;;;;;;;5.95;3.45;;;20.70;99.90;;;;;;5074212;28;20049;-76
2022/05/15 06:24:31;;;;;;;9.88;4.00;;;20.50;99.90;;;;;;5040484;28;20060;-75
2022/05/15 06:27:02;;;;;;;10.27;4.32;;;20.40;99.90;;;;;;5062154;28;20461;-77
2022/05/15 06:29:31;;;;;;;7.97;3.95;;;20.20;99.90;;;;;;5054600;28;20136;-75
2022/05/15 06:32:00;;;;;;;10.98;4.40;;;20.00;99.90;;;;;;5053863;28;20045;-75
2022/05/15 06:34:28;;;;;;;10.57;4.28;;;20.10;99.90;;;;;;5053377;28;20068;-76
2022/05/15 06:36:56;;;;;;;9.35;3.65;;;19.80;99.90;;;;;;5054206;28;20037;-75
2022/05/15 06:39:23;;;;;;;9.43;4.18;;;19.80;99.90;;;;;;5053587;28;20045;-76
2022/05/15 06:41:51;;;;;;;7.00;4.10;;;19.90;99.90;;;;;;5053712;28;20443;-76
2022/05/15 06:44:29;;;;;;;7.80;3.67;;;19.90;99.90;;;;;;5036755;28;20107;-75
2022/05/15 06:46:57;;;;;;;7.75;4.60;;;20.20;99.90;;;;;;5055015;28;20044;-76
2022/05/15 06:49:25;;;;;;;9.43;4.22;;;20.60;99.90;;;;;;5074460;28;20424;-75
2022/05/15 06:51:52;;;;;;;10.45;4.25;;;21.00;99.90;;;;;;5083184;28;20059;-76
2022/05/15 06:54:20;;;;;;;13.65;5.10;;;21.40;99.90;;;;;;5059010;28;20055;-76
2022/05/15 06:59:39;;;;;;;11.82;4.63;;;22.10;99.90;;;;;;5053850;28;20068;-75
2022/05/15 07:02:08;;;;;;;11.50;4.43;;;22.00;99.90;;;;;;5061221;28;20052;-75
2022/05/15 07:04:36;;;;;;;10.90;4.47;;;22.20;99.90;;;;;;5047188;28;20044;-76
2022/05/15 07:07:04;;;;;;;15.55;6.60;;;22.30;99.90;;;;;;5057280;28;20036;-75
2022/05/15 07:09:32;;;;;;;16.75;5.47;;;22.60;99.90;;;;;;5065227;28;20037;-76
2022/05/15 07:11:59;;;;;;;10.80;4.50;;;22.70;99.90;;;;;;5055404;28;20095;-76
2022/05/15 07:14:27;;;;;;;11.00;3.83;;;22.60;99.90;;;;;;5055682;28;20049;-76
2022/05/15 07:16:56;;;;;;;10.00;3.92;;;22.60;99.90;;;;;;5036643;28;20489;-74
2022/05/15 07:19:23;;;;;;;9.93;4.45;;;22.70;99.90;;;;;;5054972;28;20041;-77
2022/05/15 07:21:51;;;;;;;12.50;4.45;;;22.80;99.90;;;;;;5055043;28;20106;-77
2022/05/15 07:24:19;;;;;;;10.88;4.28;;;22.90;99.90;;;;;;5046038;28;20050;-78
2022/05/15 07:26:47;;;;;;;10.82;4.38;;;23.00;99.90;;;;;;5060391;28;20048;-77
2022/05/15 07:29:15;;;;;;;10.90;4.00;;;23.20;99.90;;;;;;5059172;28;20075;-77
2022/05/15 07:31:43;;;;;;;9.63;4.97;;;23.30;99.90;;;;;;5059080;28;20094;-77
2022/05/15 07:34:12;;;;;;;12.88;5.20;;;23.00;99.90;;;;;;5040762;28;20047;-78
2022/05/15 07:36:40;;;;;;;8.18;3.75;;;22.80;99.90;;;;;;5060129;28;20041;-77
2022/05/15 07:39:07;;;;;;;9.77;5.32;;;22.50;99.90;;;;;;5060006;28;20056;-77
2022/05/15 07:41:35;;;;;;;19.13;4.90;;;22.60;99.90;;;;;;5061149;28;20450;-79
2022/05/15 07:44:05;;;;;;;11.73;5.47;;;22.80;99.90;;;;;;5059999;28;20054;-78
2022/05/15 07:46:33;;;;;;;11.20;4.57;;;23.10;99.90;;;;;;5055949;28;20446;-78
2022/05/15 07:49:01;;;;;;;10.70;3.90;;;23.50;99.90;;;;;;5059970;28;20507;-77
2022/05/15 07:51:31;;;;;;;13.30;5.68;;;23.70;99.90;;;;;;5057891;28;20049;-78
2022/05/15 07:54:01;;;;;;;9.35;3.63;;;23.90;99.90;;;;;;5058956;28;20041;-77
2022/05/15 07:56:28;;;;;;;7.38;3.53;;;23.70;99.90;;;;;;5037306;28;20041;-75
2022/05/15 07:58:58;;;;;;;10.68;4.13;;;23.80;99.90;;;;;;5070809;28;20056;-77
2022/05/15 08:01:26;;;;;;;8.13;3.30;;;23.70;99.90;;;;;;5079718;28;20036;-77
2022/05/15 08:03:53;;;;;;;8.52;3.50;;;23.70;99.90;;;;;;5076222;28;20049;-76
2022/05/15 08:09:22;;;;;;;11.48;3.90;;;24.00;99.90;;;;;;4987879;28;20077;-77
2022/05/15 08:11:49;;;;;;;11.10;5.00;;;24.30;99.90;;;;;;4962097;28;20142;-78
2022/05/15 08:14:18;;;;;;;9.50;2.75;;;24.60;99.90;;;;;;4998634;28;20044;-75
2022/05/15 08:16:45;;;;;;;8.20;4.63;;;24.50;99.90;;;;;;5039959;28;20041;-76
2022/05/15 08:24:45;;;;;;;6.35;2.38;;;24.50;99.90;;;;;;5044516;28;20064;-76
2022/05/15 08:27:12;;;;;;;4.63;2.80;;;24.40;99.90;;;;;;5059730;28;20041;-76
2022/05/15 08:29:40;;;;;;;13.73;4.20;;;24.50;99.90;;;;;;5063285;28;20041;-77
2022/05/15 08:32:09;;;;;;;5.57;3.00;;;24.70;99.90;;;;;;5058590;28;20040;-77
2022/05/15 08:34:37;;;;;;;11.52;3.47;;;24.80;99.90;;;;;;5058140;28;20055;-78
2022/05/15 08:37:05;;;;;;;4.43;2.35;;;24.90;99.90;;;;;;5061409;28;20131;-77
2022/05/15 08:39:32;;;;;;;4.82;2.40;;;24.70;99.90;;;;;;5063126;28;20136;-78
2022/05/15 08:42:15;;;;;;;8.45;2.70;;;24.50;99.90;;;;;;5040828;28;20041;-79
2022/05/15 08:44:46;;;;;;;6.68;3.00;;;24.10;99.90;;;;;;5070186;28;20093;-78
2022/05/15 08:47:19;;;;;;;9.52;3.53;;;24.10;99.90;;;;;;5057855;28;20037;-78
2022/05/15 08:49:51;;;;;;;10.20;3.08;;;24.10;99.90;;;;;;5060529;28;20492;-78
2022/05/15 08:52:24;;;;;;;10.60;2.55;;;24.10;99.90;;;;;;5060769;28;20045;-78
2022/05/15 08:54:57;;;;;;;7.88;2.85;;;24.30;99.90;;;;;;5059021;28;20377;-77
2022/05/15 08:57:36;;;;;;;6.05;2.72;;;24.40;99.90;;;;;;5058489;28;20619;-76
2022/05/15 09:00:10;;;;;;;6.00;2.80;;;24.60;99.90;;;;;;5056658;28;20079;-78
2022/05/15 09:02:40;;;;;;;6.50;2.92;;;24.50;99.90;;;;;;5057340;28;20061;-77
2022/05/15 09:05:09;;;;;;;11.45;2.88;;;24.60;99.90;;;;;;5059060;28;20496;-77
2022/05/15 09:07:49;;;;;;;11.38;4.20;;;24.70;99.90;;;;;;5060180;28;20378;-78
2022/05/15 09:10:26;;;;;;;10.75;4.72;;;24.70;99.90;;;;;;5059592;28;20052;-77
2022/05/15 09:13:04;;;;;;;8.13;3.15;;;24.80;99.90;;;;;;5058601;28;20386;-77
2022/05/15 09:15:32;;;;;;;6.57;3.75;;;24.80;99.90;;;;;;5059078;28;20074;-79
2022/05/15 09:18:03;;;;;;;8.90;6.40;;;25.00;99.90;;;;;;5060283;28;20116;-78
2022/05/15 09:20:46;;;;;;;5.50;2.80;;;25.30;99.90;;;;;;5057085;28;20063;-78
2022/05/15 09:23:21;;;;;;;15.40;7.90;;;25.40;99.90;;;;;;5060272;28;20103;-78
2022/05/15 09:25:54;;;;;;;;;;;25.50;99.90;;;;;;5043095;28;20045;-78
2022/05/15 09:28:26;;;;;;;15.98;3.47;;;25.40;99.90;;;;;;5041877;28;19921;-77
2022/05/15 09:30:56;;;;;;;13.35;9.63;;;25.40;99.90;;;;;;5039959;28;20042;-77
2022/05/15 09:33:33;;;;;;;7.93;2.75;;;25.30;99.90;;;;;;5042702;28;20050;-79
2022/05/15 09:36:20;;;;;;;8.98;2.72;;;25.20;99.90;;;;;;5042285;28;20050;-78
2022/05/15 09:38:50;;;;;;;7.82;2.90;;;25.10;99.90;;;;;;5042264;28;20069;-78
2022/05/15 09:44:08;;;;;;;6.38;2.80;;;25.30;99.90;;;;;;5039576;28;20072;-79
2022/05/15 09:46:40;;;;;;;6.75;2.10;;;25.20;99.90;;;;;;5044879;28;20037;-78
2022/05/15 09:49:15;;;;;;;9.25;2.65;;;25.30;99.90;;;;;;5041006;28;20091;-78
2022/05/15 09:51:46;;;;;;;7.65;2.40;;;25.30;99.90;;;;;;5040764;28;20463;-78
2022/05/15 09:54:42;;;;;;;5.65;2.40;;;25.40;99.90;;;;;;5040268;28;20076;-78
2022/05/15 09:57:16;;;;;;;6.88;2.90;;;25.40;99.90;;;;;;5038845;28;20507;-77
2022/05/15 09:59:53;;;;;;;4.85;2.40;;;25.50;99.90;;;;;;5024598;28;20044;-78
2022/05/15 10:02:23;;;;;;;4.30;2.10;;;25.60;99.90;;;;;;5037808;28;20113;-78
2022/05/15 10:04:53;;;;;;;3.95;1.90;;;25.70;99.90;;;;;;5038804;28;20057;-78
2022/05/15 10:07:34;;;;;;;6.03;2.80;;;25.40;99.90;;;;;;5036530;28;20124;-78
2022/05/15 10:10:18;;;;;;;7.00;3.10;;;25.60;99.90;;;;;;5036966;28;20144;-78
2022/05/15 10:12:48;;;;;;;6.57;3.20;;;25.80;99.90;;;;;;5037871;28;20046;-79
2022/05/15 10:15:18;;;;;;;7.18;3.83;;;26.10;99.90;;;;;;5038585;28;20056;-78
2022/05/15 10:17:53;;;;;;;3.53;1.67;;;26.20;99.90;;;;;;5018858;28;20056;-79
2022/05/15 10:20:25;;;;;;;6.53;4.33;;;26.00;99.90;;;;;;5035029;28;20044;-77
2022/05/15 10:23:01;;;;;;;6.07;1.88;;;25.90;99.90;;;;;;5035068;28;20060;-79
2022/05/15 10:25:39;;;;;;;4.40;2.28;;;26.00;99.90;;;;;;5038590;28;20095;-79
2022/05/15 10:28:20;;;;;;;5.80;2.88;;;26.10;99.90;;;;;;5037769;28;20125;-78
2022/05/15 10:31:02;;;;;;;4.90;2.33;;;26.00;99.90;;;;;;5037258;28;20061;-77
2022/05/15 10:33:35;;;;;;;3.97;1.60;;;25.70;99.90;;;;;;5038010;28;20046;-78
2022/05/15 10:36:08;;;;;;;8.18;2.00;;;25.70;99.90;;;;;;5038943;28;20124;-78
2022/05/15 10:38:47;;;;;;;4.15;1.40;;;25.60;99.90;;;;;;5036399;28;20485;-77
2022/05/15 10:41:20;;;;;;;4.05;1.45;;;25.40;99.90;;;;;;5035129;28;20091;-77
2022/05/15 10:44:09;;;;;;;8.60;5.13;;;25.20;99.90;;;;;;5036835;28;20172;-78
2022/05/15 10:46:46;;;;;;;4.93;2.53;;;25.50;99.90;;;;;;5036820;28;20065;-78
2022/05/15 10:49:34;;;;;;;8.30;2.50;;;25.90;99.90;;;;;;5035498;28;20048;-77
2022/05/15 10:52:08;;;;;;;4.47;1.92;;;26.10;99.90;;;;;;5034713;28;20452;-79
2022/05/15 10:57:43;;;;;;;5.25;1.95;;;25.70;99.90;;;;;;5034347;28;20033;-78
2022/05/15 11:00:19;;;;;;;5.72;2.03;;;25.40;99.90;;;;;;5036604;28;20038;-79
2022/05/15 11:03:23;;;;;;;3.28;1.60;;;25.40;99.90;;;;;;5037111;28;20046;-79
2022/05/15 11:06:10;;;;;;;5.15;1.75;;;25.50;99.90;;;;;;5038160;28;20087;-78
2022/05/15 11:08:45;;;;;;;4.15;1.58;;;25.40;99.90;;;;;;5019742;28;20053;-77
2022/05/15 11:11:23;;;;;;;10.88;3.25;;;25.40;99.90;;;;;;5039246;28;20047;-79
2022/05/15 11:13:56;;;;;;;7.68;2.97;;;25.40;99.90;;;;;;5037667;28;20101;-77
2022/05/15 11:16:30;;;;;;;4.38;2.30;;;25.70;99.90;;;;;;5038696;28;20052;-78
2022/05/15 11:19:24;;;;;;;3.10;1.60;;;25.70;99.90;;;;;;5035542;28;20037;-77
2022/05/15 11:22:00;;;;;;;3.15;1.65;;;25.80;99.90;;;;;;5037877;28;20061;-79
2022/05/15 11:24:32;;;;;;;;;;;25.70;99.90;;;;;;5035430;28;20536;-80
2022/05/15 11:27:06;;;;;;;4.20;2.03;;;25.70;99.90;;;;;;5035717;28;19927;-80
2022/05/15 11:29:40;;;;;;;3.97;1.70;;;25.40;99.90;;;;;;5034857;28;20104;-79
2022/05/15 11:32:39;;;;;;;5.18;1.73;;;25.30;99.90;;;;;;5036271;28;20053;-78
2022/05/15 11:35:42;;;;;;;5.63;2.15;;;25.20;99.90;;;;;;5037687;28;20045;-80
2022/05/15 11:38:28;;;;;;;4.50;1.48;;;25.20;99.90;;;;;;4975858;28;20160;-79
2022/05/15 11:40:56;;;;;;;;;;;25.10;99.90;;;;;;4975044;28;20070;-80
2022/05/15 11:43:55;;;;;;;4.47;2.30;;;25.00;99.90;;;;;;4974278;28;19922;-79
2022/05/15 11:46:43;;;;;;;5.57;1.80;;;25.30;99.90;;;;;;4975480;28;20138;-80
2022/05/15 11:49:15;;;;;;;7.32;2.35;;;25.40;99.90;;;;;;4975063;28;20046;-79
2022/05/15 11:51:44;;;;;;;5.05;1.90;;;25.60;99.90;;;;;;4974709;28;20143;-80
2022/05/15 11:54:30;;;;;;;3.92;1.80;;;25.60;99.90;;;;;;4974214;28;20058;-80
2022/05/15 11:56:59;;;;;;;5.25;2.22;;;25.60;99.90;;;;;;4974716;28;20119;-80
2022/05/15 11:59:28;;;;;;;4.40;2.00;;;25.70;99.90;;;;;;4975644;28;20494;-80
2022/05/15 12:01:58;;;;;;;5.05;2.00;;;25.70;99.90;;;;;;4975280;28;20042;-80
2022/05/15 12:04:55;;;;;;;6.20;1.80;;;25.60;99.90;;;;;;4975207;28;20051;-80
2022/05/15 12:07:49;;;;;;;3.42;1.63;;;25.60;99.90;;;;;;4976225;28;20114;-78
2022/05/15 12:10:38;;;;;;;4.80;1.90;;;25.40;99.90;;;;;;4960518;28;20391;-80
2022/05/15 12:13:10;;;;;;;6.13;1.88;;;25.50;99.90;;;;;;5028718;28;20054;-80
2022/05/15 12:15:42;;;;;;;7.13;2.17;;;25.60;99.90;;;;;;5040673;28;20041;-81
2022/05/15 12:18:23;;;;;;;5.35;2.00;;;25.70;99.90;;;;;;5042256;28;20525;-80
2022/05/15 12:20:53;;;;;;;6.55;1.88;;;25.80;99.90;;;;;;5042399;28;20045;-80
2022/05/15 12:23:23;;;;;;;4.45;2.05;;;25.80;99.90;;;;;;5042559;28;20493;-80
2022/05/15 12:26:01;;;;;;;4.05;1.80;;;25.90;99.90;;;;;;5042763;28;20107;-80
2022/05/15 12:28:53;;;;;;;6.35;1.80;;;25.60;99.90;;;;;;5039469;28;20405;-80
2022/05/15 12:31:29;;;;;;;4.00;1.70;;;25.70;99.90;;;;;;5047525;28;20053;-79
2022/05/15 12:33:56;;;;;;;;;;;25.70;99.90;;;;;;5047426;28;20432;-79
2022/05/15 12:36:37;;;;;;;3.30;1.60;;;25.60;99.90;;;;;;5049775;28;19921;-80
2022/05/15 12:39:06;;;;;;;8.75;2.28;;;25.40;99.90;;;;;;5048350;28;20065;-78
2022/05/15 12:41:37;;;;;;;4.22;1.80;;;25.50;99.90;;;;;;5045814;28;20378;-79
2022/05/15 12:44:07;;;;;;;5.32;2.00;;;25.60;99.90;;;;;;5047433;28;20497;-80
2022/05/15 12:46:38;;;;;;;5.13;2.03;;;25.60;99.90;;;;;;5048074;28;20049;-79
2022/05/15 12:49:06;;;;;;;3.45;1.92;;;25.70;99.90;;;;;;5053953;28;20038;-79
2022/05/15 12:51:36;;;;;;;5.45;2.35;;;25.80;99.90;;;;;;5052698;28;20046;-78
2022/05/15 12:54:20;;;;;;;4.55;2.00;;;25.80;99.90;;;;;;5058906;28;20045;-78
2022/05/15 12:56:59;;;;;;;8.15;2.63;;;25.80;99.90;;;;;;5057919;28;20050;-77
2022/05/15 12:59:29;;;;;;;4.75;1.70;;;26.00;99.90;;;;;;5040204;28;20049;-80
2022/05/15 13:01:56;;;;;;;5.00;1.40;;;26.00;99.90;;;;;;5038451;28;20037;-81
2022/05/15 13:04:27;;;;;;;4.82;1.85;;;25.90;99.90;;;;;;5058365;28;20095;-80
2022/05/15 13:06:57;;;;;;;4.82;2.38;;;25.70;99.90;;;;;;5067005;28;20041;-78
2022/05/15 13:09:28;;;;;;;5.40;2.30;;;25.60;99.90;;;;;;5068848;28;20048;-79
2022/05/15 13:11:59;;;;;;;6.47;1.92;;;25.70;99.90;;;;;;5073645;28;20079;-78
2022/05/15 13:14:30;;;;;;;6.22;1.65;;;25.80;99.90;;;;;;5070592;28;20045;-79
2022/05/15 13:16:59;;;;;;;4.35;1.60;;;25.70;99.90;;;;;;5070882;28;20040;-78
2022/05/15 13:19:29;;;;;;;6.47;2.03;;;25.70;99.90;;;;;;5071707;28;20055;-78
2022/05/15 13:21:58;;;;;;;7.90;2.13;;;25.70;99.90;;;;;;5054529;28;20058;-79
2022/05/15 13:24:27;;;;;;;6.40;2.00;;;25.70;99.90;;;;;;5020062;28;20050;-80
2022/05/15 13:26:58;;;;;;;4.22;1.73;;;25.70;99.90;;;;;;5018687;28;20117;-79